EGXT

Details ICAO EGXT
Name RAF Witerring
Region United Kingdom
Timezone Europe/London (UTC+1.0)
Plans Departing 6
Arriving 6
Stats Elevation 273 ft / 83 m (AMSL)
Location 52.613084° -0.476080°
Runways 1
Magnetic Variation 0.630° W
Sunrise 2018-05-23 03:55:41 UTC / 2018-05-23 04:55:41 Local
Sunset 2018-05-23 20:04:28 UTC / 2018-05-23 21:04:28 Local
Advertisement - Login to hide

Runways

ID Width Length Bearing (true) Bearing (mag) Surface Threshold Offset Overrun Length
08 200 ft / 61 m 8,994 ft / 2,742 m 73.08° 73.71° Asphalt 0 ft / 0 m 0 ft / 0 m
26 200 ft / 61 m 8,994 ft / 2,742 m 253.12° 253.75° Asphalt 0 ft / 0 m 0 ft / 0 m

Map

Weather


0- 5 10 15 20 25 30 35+ Temperature / ° C

Clouds and Precipitation
Forecast for 2018-05-23 12:00 UTC. Updated 2 minutes ago

Ground ~20,000 ft ~40,000 ft Winds

METAR

EGXT 231050Z 02011KT 9999 OVC010 11/09 Q1025 GRN

TAF

Not found

Frequencies

Tower 125.52 MHz Wittering Tower
Approach 130.20 MHz Wittering Approach
Warning: Do not use this data for real-world aviation or navigation. No guarantee of current accuracy is given.